sensor_id;sensor_type;location;lat;lon;timestamp;temperature;humidity
28725;DHT22;43472;48.980;9.646;2023-05-10T00:03:10;15.10;99.90
28725;DHT22;43472;48.980;9.646;2023-05-10T00:08:12;15.10;99.90
28725;DHT22;43472;48.980;9.646;2023-05-10T00:13:14;15.10;99.90
28725;DHT22;43472;48.980;9.646;2023-05-10T00:18:31;15.00;99.90
28725;DHT22;43472;48.980;9.646;2023-05-10T00:23:33;14.90;99.90
28725;DHT22;43472;48.980;9.646;2023-05-10T00:28:35;15.00;99.90
28725;DHT22;43472;48.980;9.646;2023-05-10T00:33:37;15.00;99.90
28725;DHT22;43472;48.980;9.646;2023-05-10T00:38:39;14.80;99.90
28725;DHT22;43472;48.980;9.646;2023-05-10T00:43:41;14.90;99.90
28725;DHT22;43472;48.980;9.646;2023-05-10T00:48:43;14.60;99.90
28725;DHT22;43472;48.980;9.646;2023-05-10T00:53:46;14.20;99.90
28725;DHT22;43472;48.980;9.646;2023-05-10T00:59:03;15.50;99.90
28725;DHT22;43472;48.980;9.646;2023-05-10T01:04:07;14.30;99.90
28725;DHT22;43472;48.980;9.646;2023-05-10T01:09:12;14.30;99.90
28725;DHT22;43472;48.980;9.646;2023-05-10T01:14:22;14.40;99.90
28725;DHT22;43472;48.980;9.646;2023-05-10T01:19:29;14.40;99.90
28725;DHT22;43472;48.980;9.646;2023-05-10T01:35:37;14.10;99.90
28725;DHT22;43472;48.980;9.646;2023-05-10T01:46:10;14.10;99.90
28725;DHT22;43472;48.980;9.646;2023-05-10T01:51:27;14.10;99.90
28725;DHT22;43472;48.980;9.646;2023-05-10T01:56:39;13.80;99.90
28725;DHT22;43472;48.980;9.646;2023-05-10T02:01:50;13.80;99.90
28725;DHT22;43472;48.980;9.646;2023-05-10T02:07:01;13.70;99.90
28725;DHT22;43472;48.980;9.646;2023-05-10T02:12:05;13.30;99.90
28725;DHT22;43472;48.980;9.646;2023-05-10T02:17:08;13.30;99.90
28725;DHT22;43472;48.980;9.646;2023-05-10T02:22:15;13.30;99.90
28725;DHT22;43472;48.980;9.646;2023-05-10T02:27:22;13.50;99.90
28725;DHT22;43472;48.980;9.646;2023-05-10T02:32:28;13.20;99.90
28725;DHT22;43472;48.980;9.646;2023-05-10T02:37:31;13.40;99.90
28725;DHT22;43472;48.980;9.646;2023-05-10T02:42:36;13.30;99.90
28725;DHT22;43472;48.980;9.646;2023-05-10T02:47:39;13.10;99.90
28725;DHT22;43472;48.980;9.646;2023-05-10T02:52:50;13.30;99.90
28725;DHT22;43472;48.980;9.646;2023-05-10T02:57:59;13.50;99.90
28725;DHT22;43472;48.980;9.646;2023-05-10T03:03:01;13.60;99.90
28725;DHT22;43472;48.980;9.646;2023-05-10T03:08:03;13.60;99.90
28725;DHT22;43472;48.980;9.646;2023-05-10T03:24:16;13.50;99.90
28725;DHT22;43472;48.980;9.646;2023-05-10T03:29:21;13.50;99.90
28725;DHT22;43472;48.980;9.646;2023-05-10T03:34:25;13.30;99.90
28725;DHT22;43472;48.980;9.646;2023-05-10T03:39:27;13.50;99.90
28725;DHT22;43472;48.980;9.646;2023-05-10T03:44:29;13.60;99.90
28725;DHT22;43472;48.980;9.646;2023-05-10T03:49:31;13.40;99.90
28725;DHT22;43472;48.980;9.646;2023-05-10T03:54:33;13.50;99.90
28725;DHT22;43472;48.980;9.646;2023-05-10T03:59:34;13.60;99.90
28725;DHT22;43472;48.980;9.646;2023-05-10T04:04:36;13.60;99.90
28725;DHT22;43472;48.980;9.646;2023-05-10T04:09:38;13.70;99.90
28725;DHT22;43472;48.980;9.646;2023-05-10T04:14:40;13.70;99.90
28725;DHT22;43472;48.980;9.646;2023-05-10T04:19:42;13.80;99.90
28725;DHT22;43472;48.980;9.646;2023-05-10T04:24:44;13.70;99.90
28725;DHT22;43472;48.980;9.646;2023-05-10T04:29:46;13.80;99.90
28725;DHT22;43472;48.980;9.646;2023-05-10T04:34:47;13.80;99.90
28725;DHT22;43472;48.980;9.646;2023-05-10T04:39:49;13.60;99.90
28725;DHT22;43472;48.980;9.646;2023-05-10T04:44:51;13.60;99.90
28725;DHT22;43472;48.980;9.646;2023-05-10T04:49:53;13.60;99.90
28725;DHT22;43472;48.980;9.646;2023-05-10T04:54:55;13.40;99.90
28725;DHT22;43472;48.980;9.646;2023-05-10T04:59:57;13.70;99.90
28725;DHT22;43472;48.980;9.646;2023-05-10T05:04:59;13.60;99.90
28725;DHT22;43472;48.980;9.646;2023-05-10T05:10:01;13.70;99.90
28725;DHT22;43472;48.980;9.646;2023-05-10T05:15:03;14.00;99.90
28725;DHT22;43472;48.980;9.646;2023-05-10T05:20:05;14.00;99.90
28725;DHT22;43472;48.980;9.646;2023-05-10T05:25:08;13.90;99.90
28725;DHT22;43472;48.980;9.646;2023-05-10T05:30:10;13.60;99.90
28725;DHT22;43472;48.980;9.646;2023-05-10T05:35:12;13.80;99.90
28725;DHT22;43472;48.980;9.646;2023-05-10T05:40:14;13.80;99.90
28725;DHT22;43472;48.980;9.646;2023-05-10T05:45:16;13.90;99.90
28725;DHT22;43472;48.980;9.646;2023-05-10T05:50:19;14.00;99.90
28725;DHT22;43472;48.980;9.646;2023-05-10T05:55:20;14.10;99.90
28725;DHT22;43472;48.980;9.646;2023-05-10T06:00:22;13.70;99.90
28725;DHT22;43472;48.980;9.646;2023-05-10T06:05:24;14.00;99.90
28725;DHT22;43472;48.980;9.646;2023-05-10T06:10:26;14.10;99.90
28725;DHT22;43472;48.980;9.646;2023-05-10T06:15:28;14.10;99.90
28725;DHT22;43472;48.980;9.646;2023-05-10T06:20:30;14.50;99.90
28725;DHT22;43472;48.980;9.646;2023-05-10T06:25:35;14.50;99.90
28725;DHT22;43472;48.980;9.646;2023-05-10T06:30:36;14.50;99.90
28725;DHT22;43472;48.980;9.646;2023-05-10T06:35:38;14.40;99.90
28725;DHT22;43472;48.980;9.646;2023-05-10T06:40:43;14.50;99.90
28725;DHT22;43472;48.980;9.646;2023-05-10T06:45:45;14.60;99.90
28725;DHT22;43472;48.980;9.646;2023-05-10T06:50:47;14.80;99.90
28725;DHT22;43472;48.980;9.646;2023-05-10T06:55:49;15.10;99.90
28725;DHT22;43472;48.980;9.646;2023-05-10T07:00:51;14.90;99.90
28725;DHT22;43472;48.980;9.646;2023-05-10T07:05:53;16.00;99.90
28725;DHT22;43472;48.980;9.646;2023-05-10T07:11:02;15.00;99.90
28725;DHT22;43472;48.980;9.646;2023-05-10T07:16:05;15.00;99.90
28725;DHT22;43472;48.980;9.646;2023-05-10T07:21:08;14.80;99.90
28725;DHT22;43472;48.980;9.646;2023-05-10T07:26:10;14.50;99.90
28725;DHT22;43472;48.980;9.646;2023-05-10T07:31:12;14.80;99.90
28725;DHT22;43472;48.980;9.646;2023-05-10T07:36:14;14.60;99.90
28725;DHT22;43472;48.980;9.646;2023-05-10T07:41:16;14.90;99.90
28725;DHT22;43472;48.980;9.646;2023-05-10T07:46:17;14.80;99.90
28725;DHT22;43472;48.980;9.646;2023-05-10T07:51:21;15.30;99.90
28725;DHT22;43472;48.980;9.646;2023-05-10T07:56:30;15.30;99.90
28725;DHT22;43472;48.980;9.646;2023-05-10T08:01:34;15.10;99.90
28725;DHT22;43472;48.980;9.646;2023-05-10T08:06:36;15.00;99.90
28725;DHT22;43472;48.980;9.646;2023-05-10T08:11:38;15.10;99.90
28725;DHT22;43472;48.980;9.646;2023-05-10T08:16:40;15.10;99.90
28725;DHT22;43472;48.980;9.646;2023-05-10T08:21:42;15.40;99.90
28725;DHT22;43472;48.980;9.646;2023-05-10T08:26:44;15.00;99.90
28725;DHT22;43472;48.980;9.646;2023-05-10T08:31:46;15.40;99.90
28725;DHT22;43472;48.980;9.646;2023-05-10T08:36:48;15.20;99.90
28725;DHT22;43472;48.980;9.646;2023-05-10T08:41:51;15.40;99.90
28725;DHT22;43472;48.980;9.646;2023-05-10T08:46:55;15.80;99.90
28725;DHT22;43472;48.980;9.646;2023-05-10T08:52:03;16.00;99.90
28725;DHT22;43472;48.980;9.646;2023-05-10T08:57:05;16.20;99.90
28725;DHT22;43472;48.980;9.646;2023-05-10T09:02:10;15.50;99.90
28725;DHT22;43472;48.980;9.646;2023-05-10T09:07:13;16.00;99.90
28725;DHT22;43472;48.980;9.646;2023-05-10T09:12:15;15.80;99.90
28725;DHT22;43472;48.980;9.646;2023-05-10T09:17:17;16.20;99.90
28725;DHT22;43472;48.980;9.646;2023-05-10T09:22:20;16.30;99.90
28725;DHT22;43472;48.980;9.646;2023-05-10T09:27:30;16.10;99.90
28725;DHT22;43472;48.980;9.646;2023-05-10T09:37:42;16.50;99.90
28725;DHT22;43472;48.980;9.646;2023-05-10T09:47:57;16.80;99.90
28725;DHT22;43472;48.980;9.646;2023-05-10T09:53:00;16.40;99.90
28725;DHT22;43472;48.980;9.646;2023-05-10T09:58:03;17.10;99.90
28725;DHT22;43472;48.980;9.646;2023-05-10T10:03:06;16.90;99.90
28725;DHT22;43472;48.980;9.646;2023-05-10T10:08:08;17.40;99.90
28725;DHT22;43472;48.980;9.646;2023-05-10T10:13:10;17.10;99.90
28725;DHT22;43472;48.980;9.646;2023-05-10T10:18:13;16.80;99.90
28725;DHT22;43472;48.980;9.646;2023-05-10T10:23:16;16.80;99.90
28725;DHT22;43472;48.980;9.646;2023-05-10T10:28:26;16.40;99.90
28725;DHT22;43472;48.980;9.646;2023-05-10T10:38:55;16.20;99.90
28725;DHT22;43472;48.980;9.646;2023-05-10T10:49:31;16.60;99.90
28725;DHT22;43472;48.980;9.646;2023-05-10T10:54:37;16.90;99.90
28725;DHT22;43472;48.980;9.646;2023-05-10T10:59:43;17.30;99.90
28725;DHT22;43472;48.980;9.646;2023-05-10T11:04:45;17.20;99.90
28725;DHT22;43472;48.980;9.646;2023-05-10T11:09:48;17.40;99.90
28725;DHT22;43472;48.980;9.646;2023-05-10T11:14:50;17.30;99.90
28725;DHT22;43472;48.980;9.646;2023-05-10T11:20:14;17.90;99.90
28725;DHT22;43472;48.980;9.646;2023-05-10T11:25:17;17.30;99.90
28725;DHT22;43472;48.980;9.646;2023-05-10T11:30:19;16.30;99.90
28725;DHT22;43472;48.980;9.646;2023-05-10T11:35:21;15.80;99.90
28725;DHT22;43472;48.980;9.646;2023-05-10T11:40:23;15.80;99.90
28725;DHT22;43472;48.980;9.646;2023-05-10T11:45:26;15.60;99.90
28725;DHT22;43472;48.980;9.646;2023-05-10T11:50:29;15.70;99.90
28725;DHT22;43472;48.980;9.646;2023-05-10T11:55:33;15.90;99.90
28725;DHT22;43472;48.980;9.646;2023-05-10T12:00:35;16.20;99.90
28725;DHT22;43472;48.980;9.646;2023-05-10T12:05:37;16.70;99.90
28725;DHT22;43472;48.980;9.646;2023-05-10T12:10:41;16.70;99.90
28725;DHT22;43472;48.980;9.646;2023-05-10T12:15:43;16.70;99.90
28725;DHT22;43472;48.980;9.646;2023-05-10T12:20:45;16.00;99.90
28725;DHT22;43472;48.980;9.646;2023-05-10T12:25:47;15.80;99.90
28725;DHT22;43472;48.980;9.646;2023-05-10T12:30:55;16.00;99.90
28725;DHT22;43472;48.980;9.646;2023-05-10T12:36:02;16.00;99.90
28725;DHT22;43472;48.980;9.646;2023-05-10T12:41:09;16.10;99.90
28725;DHT22;43472;48.980;9.646;2023-05-10T12:46:16;15.90;99.90
28725;DHT22;43472;48.980;9.646;2023-05-10T12:51:18;16.20;99.90
28725;DHT22;43472;48.980;9.646;2023-05-10T12:56:23;16.50;99.90
28725;DHT22;43472;48.980;9.646;2023-05-10T13:01:25;16.80;99.90
28725;DHT22;43472;48.980;9.646;2023-05-10T13:06:27;17.10;99.90
28725;DHT22;43472;48.980;9.646;2023-05-10T13:11:29;17.30;99.90
28725;DHT22;43472;48.980;9.646;2023-05-10T13:16:35;17.00;99.90
28725;DHT22;43472;48.980;9.646;2023-05-10T13:21:37;17.20;99.90
28725;DHT22;43472;48.980;9.646;2023-05-10T13:26:39;17.10;99.90
28725;DHT22;43472;48.980;9.646;2023-05-10T13:31:42;16.80;99.90
28725;DHT22;43472;48.980;9.646;2023-05-10T13:36:47;16.50;99.90
28725;DHT22;43472;48.980;9.646;2023-05-10T13:41:50;16.20;99.90
28725;DHT22;43472;48.980;9.646;2023-05-10T13:46:53;16.20;99.90
28725;DHT22;43472;48.980;9.646;2023-05-10T13:52:11;16.20;99.90
28725;DHT22;43472;48.980;9.646;2023-05-10T13:57:28;16.70;99.90
28725;DHT22;43472;48.980;9.646;2023-05-10T14:02:32;16.70;99.90
28725;DHT22;43472;48.980;9.646;2023-05-10T14:07:34;17.00;99.90
28725;DHT22;43472;48.980;9.646;2023-05-10T14:12:36;16.80;99.90
28725;DHT22;43472;48.980;9.646;2023-05-10T14:17:38;17.10;99.90
28725;DHT22;43472;48.980;9.646;2023-05-10T14:22:40;17.00;99.90
28725;DHT22;43472;48.980;9.646;2023-05-10T14:27:42;17.00;99.90
28725;DHT22;43472;48.980;9.646;2023-05-10T14:32:59;16.70;99.90
28725;DHT22;43472;48.980;9.646;2023-05-10T14:38:02;17.00;99.90
28725;DHT22;43472;48.980;9.646;2023-05-10T14:43:07;17.10;99.90
28725;DHT22;43472;48.980;9.646;2023-05-10T14:48:09;17.00;99.90
28725;DHT22;43472;48.980;9.646;2023-05-10T14:53:16;17.00;99.90
28725;DHT22;43472;48.980;9.646;2023-05-10T14:58:33;16.60;99.90
28725;DHT22;43472;48.980;9.646;2023-05-10T15:03:50;16.30;99.90
28725;DHT22;43472;48.980;9.646;2023-05-10T15:08:52;16.60;99.90
28725;DHT22;43472;48.980;9.646;2023-05-10T15:13:55;16.30;99.90
28725;DHT22;43472;48.980;9.646;2023-05-10T15:18:56;16.30;99.90
28725;DHT22;43472;48.980;9.646;2023-05-10T15:24:00;16.50;99.90
28725;DHT22;43472;48.980;9.646;2023-05-10T15:29:02;16.40;99.90
28725;DHT22;43472;48.980;9.646;2023-05-10T15:34:04;16.50;99.90
28725;DHT22;43472;48.980;9.646;2023-05-10T15:39:06;16.40;99.90
28725;DHT22;43472;48.980;9.646;2023-05-10T15:44:22;16.30;99.90
28725;DHT22;43472;48.980;9.646;2023-05-10T15:49:25;16.20;99.90
28725;DHT22;43472;48.980;9.646;2023-05-10T15:54:27;16.30;99.90
28725;DHT22;43472;48.980;9.646;2023-05-10T15:59:29;15.90;99.90
28725;DHT22;43472;48.980;9.646;2023-05-10T16:04:31;16.40;99.90
28725;DHT22;43472;48.980;9.646;2023-05-10T16:09:33;16.60;99.90
28725;DHT22;43472;48.980;9.646;2023-05-10T16:14:35;16.40;99.90
28725;DHT22;43472;48.980;9.646;2023-05-10T16:19:52;16.20;99.90
28725;DHT22;43472;48.980;9.646;2023-05-10T16:24:55;16.30;99.90
28725;DHT22;43472;48.980;9.646;2023-05-10T16:29:57;16.10;99.90
28725;DHT22;43472;48.980;9.646;2023-05-10T16:34:58;16.20;99.90
28725;DHT22;43472;48.980;9.646;2023-05-10T16:40:16;16.00;99.90
28725;DHT22;43472;48.980;9.646;2023-05-10T16:45:18;16.20;99.90
28725;DHT22;43472;48.980;9.646;2023-05-10T16:50:20;16.00;99.90
28725;DHT22;43472;48.980;9.646;2023-05-10T16:55:23;15.90;99.90
28725;DHT22;43472;48.980;9.646;2023-05-10T17:00:27;15.90;99.90
28725;DHT22;43472;48.980;9.646;2023-05-10T17:05:28;15.90;99.90
28725;DHT22;43472;48.980;9.646;2023-05-10T17:10:31;15.90;99.90
28725;DHT22;43472;48.980;9.646;2023-05-10T17:15:36;15.90;99.90
28725;DHT22;43472;48.980;9.646;2023-05-10T17:20:38;16.00;99.90
28725;DHT22;43472;48.980;9.646;2023-05-10T17:30:42;15.80;99.90
28725;DHT22;43472;48.980;9.646;2023-05-10T17:35:45;16.00;99.90
28725;DHT22;43472;48.980;9.646;2023-05-10T17:40:47;15.90;99.90
28725;DHT22;43472;48.980;9.646;2023-05-10T17:50:52;15.70;99.90
28725;DHT22;43472;48.980;9.646;2023-05-10T18:11:11;15.40;99.90
28725;DHT22;43472;48.980;9.646;2023-05-10T18:16:13;15.30;99.90
28725;DHT22;43472;48.980;9.646;2023-05-10T18:21:16;15.10;99.90
28725;DHT22;43472;48.980;9.646;2023-05-10T18:26:18;15.10;99.90
28725;DHT22;43472;48.980;9.646;2023-05-10T18:31:20;16.00;99.90
28725;DHT22;43472;48.980;9.646;2023-05-10T18:36:22;14.80;99.90
28725;DHT22;43472;48.980;9.646;2023-05-10T18:41:24;14.80;99.90
28725;DHT22;43472;48.980;9.646;2023-05-10T18:46:29;14.70;99.90
28725;DHT22;43472;48.980;9.646;2023-05-10T18:51:31;14.60;99.90
28725;DHT22;43472;48.980;9.646;2023-05-10T19:01:36;14.30;99.90
28725;DHT22;43472;48.980;9.646;2023-05-10T19:11:42;14.20;99.90
28725;DHT22;43472;48.980;9.646;2023-05-10T19:16:44;15.20;99.90
28725;DHT22;43472;48.980;9.646;2023-05-10T19:26:50;14.00;99.90
28725;DHT22;43472;48.980;9.646;2023-05-10T19:31:52;14.00;99.90
28725;DHT22;43472;48.980;9.646;2023-05-10T19:36:54;15.80;99.90
28725;DHT22;43472;48.980;9.646;2023-05-10T19:41:59;13.80;99.90
28725;DHT22;43472;48.980;9.646;2023-05-10T19:47:03;13.80;99.90
28725;DHT22;43472;48.980;9.646;2023-05-10T19:52:06;13.70;99.90
28725;DHT22;43472;48.980;9.646;2023-05-10T19:57:11;13.70;99.90
28725;DHT22;43472;48.980;9.646;2023-05-10T20:02:14;13.70;99.90
28725;DHT22;43472;48.980;9.646;2023-05-10T20:12:18;13.60;99.90
28725;DHT22;43472;48.980;9.646;2023-05-10T20:17:21;13.50;99.90
28725;DHT22;43472;48.980;9.646;2023-05-10T20:22:23;13.50;99.90
28725;DHT22;43472;48.980;9.646;2023-05-10T20:27:26;13.40;99.90
28725;DHT22;43472;48.980;9.646;2023-05-10T20:32:28;13.30;99.90
28725;DHT22;43472;48.980;9.646;2023-05-10T20:37:30;13.30;99.90
28725;DHT22;43472;48.980;9.646;2023-05-10T20:47:35;13.10;99.90
28725;DHT22;43472;48.980;9.646;2023-05-10T20:52:37;13.10;99.90
28725;DHT22;43472;48.980;9.646;2023-05-10T20:57:40;13.10;99.90
28725;DHT22;43472;48.980;9.646;2023-05-10T21:02:44;13.30;99.90
28725;DHT22;43472;48.980;9.646;2023-05-10T21:07:46;13.10;99.90
28725;DHT22;43472;48.980;9.646;2023-05-10T21:12:48;13.10;99.90
28725;DHT22;43472;48.980;9.646;2023-05-10T21:17:50;12.90;99.90
28725;DHT22;43472;48.980;9.646;2023-05-10T21:27:56;12.90;99.90
28725;DHT22;43472;48.980;9.646;2023-05-10T21:32:59;13.30;99.90
28725;DHT22;43472;48.980;9.646;2023-05-10T21:38:02;12.70;99.90
28725;DHT22;43472;48.980;9.646;2023-05-10T21:48:06;12.70;99.90
28725;DHT22;43472;48.980;9.646;2023-05-10T21:53:08;15.30;99.90
28725;DHT22;43472;48.980;9.646;2023-05-10T21:58:10;12.70;99.90
28725;DHT22;43472;48.980;9.646;2023-05-10T22:03:12;14.60;99.90
28725;DHT22;43472;48.980;9.646;2023-05-10T22:08:14;12.60;99.90
28725;DHT22;43472;48.980;9.646;2023-05-10T22:13:17;13.60;99.90
28725;DHT22;43472;48.980;9.646;2023-05-10T22:18:19;12.50;99.90
28725;DHT22;43472;48.980;9.646;2023-05-10T22:23:21;13.10;99.90
28725;DHT22;43472;48.980;9.646;2023-05-10T22:28:22;12.40;99.90
28725;DHT22;43472;48.980;9.646;2023-05-10T22:33:24;12.50;99.90
28725;DHT22;43472;48.980;9.646;2023-05-10T22:38:26;12.50;99.90
28725;DHT22;43472;48.980;9.646;2023-05-10T22:48:33;12.50;99.90
28725;DHT22;43472;48.980;9.646;2023-05-10T22:58:38;12.40;99.90
28725;DHT22;43472;48.980;9.646;2023-05-10T23:08:43;12.30;99.90
28725;DHT22;43472;48.980;9.646;2023-05-10T23:13:45;12.30;99.90
28725;DHT22;43472;48.980;9.646;2023-05-10T23:18:47;12.30;99.90
28725;DHT22;43472;48.980;9.646;2023-05-10T23:23:49;12.50;99.90
28725;DHT22;43472;48.980;9.646;2023-05-10T23:33:55;12.20;99.90
28725;DHT22;43472;48.980;9.646;2023-05-10T23:44:00;12.30;99.90
28725;DHT22;43472;48.980;9.646;2023-05-10T23:49:03;12.30;99.90
28725;DHT22;43472;48.980;9.646;2023-05-10T23:54:05;13.60;99.90
28725;DHT22;43472;48.980;9.646;2023-05-10T23:59:07;12.20;99.90
